Time;durP1;ratioP1;P1;durP2;ratioP2;P2;SDS_P1;SDS_P2;PMS_P1;PMS_P2;Temp;Humidity;BMP_temperature;BMP_pressure;BME280_temperature;BME280_humidity;BME280_pressure;Samples;Min_cycle;Max_cycle;Signal;HPM_P1;HPM_P2
2022/05/06 00:00:28;;;;;;;3.10;2.37;;;;;;;;;;5033693;28;20258;-84
2022/05/06 00:02:55;;;;;;;2.60;2.03;;;;;;;;;;5033191;28;20208;-83
2022/05/06 00:05:22;;;;;;;2.43;2.00;;;;;;;;;;5033394;28;20198;-84
2022/05/06 00:07:51;;;;;;;2.10;1.90;;;;;;;;;;5033474;28;20194;-84
2022/05/06 00:10:18;;;;;;;2.33;1.73;;;;;;;;;;5033254;28;20285;-82
2022/05/06 00:12:45;;;;;;;2.20;2.00;;;;;;;;;;5033221;28;20195;-84
2022/05/06 00:15:13;;;;;;;2.67;1.57;;;;;;;;;;5033095;28;20289;-82
2022/05/06 00:17:40;;;;;;;2.23;2.07;;;;;;;;;;5033186;28;20202;-82
2022/05/06 00:20:08;;;;;;;2.30;2.07;;;;;;;;;;5033263;28;20605;-82
2022/05/06 00:22:36;;;;;;;2.07;1.97;;;;;;;;;;5032371;28;20325;-84
2022/05/06 00:25:05;;;;;;;3.40;2.00;;;;;;;;;;5032955;28;20238;-85
2022/05/06 00:27:32;;;;;;;1.80;1.70;;;;;;;;;;5033044;28;20694;-82
2022/05/06 00:30:00;;;;;;;2.90;2.23;;;;;;;;;;5033182;28;20277;-82
2022/05/06 00:32:27;;;;;;;2.00;1.90;;;;;;;;;;5032705;28;20245;-85
2022/05/06 00:34:55;;;;;;;2.00;1.80;;;;;;;;;;5032414;28;20216;-85
2022/05/06 00:37:22;;;;;;;2.10;1.90;;;;;;;;;;5033235;28;20199;-85
2022/05/06 00:39:54;;;;;;;5.27;2.37;;;;;;;;;;5032657;28;20607;-85
2022/05/06 00:42:38;;;;;;;2.03;1.83;;;;;;;;;;5032954;28;20662;-85
2022/05/06 00:45:36;;;;;;;2.60;2.00;;;;;;;;;;5032831;28;20223;-83
2022/05/06 00:51:34;;;;;;;2.40;2.00;;;;;;;;;;5032121;28;20265;-84
2022/05/06 01:01:06;;;;;;;2.37;1.93;;;;;;;;;;4913859;29;20239;-84
2022/05/06 01:03:46;;;;;;;3.00;2.30;;;;;;;;;;4851517;29;20211;-85
2022/05/06 01:12:35;;;;;;;2.97;2.50;;;;;;;;;;4970769;28;20197;-84
2022/05/06 01:15:19;;;;;;;3.47;2.37;;;;;;;;;;4971291;28;20279;-84
2022/05/06 01:20:57;;;;;;;3.83;2.10;;;;;;;;;;4932523;29;20361;-85
2022/05/06 01:24:05;;;;;;;1.87;1.77;;;;;;;;;;4916797;29;20210;-86
2022/05/06 01:30:19;;;;;;;4.63;2.60;;;;;;;;;;4876326;29;20371;-87
2022/05/06 01:32:47;;;;;;;3.20;2.50;;;;;;;;;;4881791;29;20611;-84
2022/05/06 01:38:59;;;;;;;2.27;2.03;;;;;;;;;;4931882;29;20206;-84
2022/05/06 01:48:38;;;;;;;2.87;2.67;;;;;;;;;;4932945;29;20299;-84
2022/05/06 01:53:54;;;;;;;3.13;2.83;;;;;;;;;;4919920;29;20211;-83
2022/05/06 01:57:23;;;;;;;4.40;2.90;;;;;;;;;;4932605;29;20198;-83
2022/05/06 02:00:22;;;;;;;3.50;3.03;;;;;;;;;;4911492;29;20226;-85
2022/05/06 02:05:55;;;;;;;7.40;3.00;;;;;;;;;;5003778;28;20197;-86
2022/05/06 02:08:23;;;;;;;5.17;3.10;;;;;;;;;;5031671;28;20202;-84
2022/05/06 02:11:31;;;;;;;4.60;2.93;;;;;;;;;;5031504;28;20201;-85
2022/05/06 02:14:41;;;;;;;4.27;2.87;;;;;;;;;;5033083;28;20252;-86
2022/05/06 02:17:53;;;;;;;4.40;2.90;;;;;;;;;;5035372;28;20194;-85
2022/05/06 02:23:59;;;;;;;2.97;2.77;;;;;;;;;;4913947;29;20208;-85
2022/05/06 02:33:57;;;;;;;7.30;3.57;;;;;;;;;;5015791;28;20178;-86
2022/05/06 02:40:51;;;;;;;4.60;3.97;;;;;;;;;;4964096;28;20790;-85
2022/05/06 02:49:54;;;;;;;2.53;2.33;;;;;;;;;;4921564;28;20207;-85
2022/05/06 02:55:46;;;;;;;3.97;2.43;;;;;;;;;;4973938;28;20685;-85
2022/05/06 03:08:59;;;;;;;2.80;2.60;;;;;;;;;;4916365;29;20206;-84
2022/05/06 03:12:35;;;;;;;2.90;2.60;;;;;;;;;;4954126;29;20198;-86
2022/05/06 03:15:21;;;;;;;7.03;3.20;;;;;;;;;;4954128;29;20656;-86
2022/05/06 03:21:23;;;;;;;3.13;2.83;;;;;;;;;;4920451;29;20313;-85
2022/05/06 03:27:01;;;;;;;3.23;2.73;;;;;;;;;;4935133;29;20599;-85
2022/05/06 03:29:49;;;;;;;3.70;2.57;;;;;;;;;;4934639;29;20277;-85
2022/05/06 03:35:51;;;;;;;3.80;3.40;;;;;;;;;;4915673;29;20202;-85
2022/05/06 03:38:24;;;;;;;6.50;4.03;;;;;;;;;;4934632;29;20651;-85
2022/05/06 03:41:26;;;;;;;6.50;3.70;;;;;;;;;;4933746;29;20229;-86
2022/05/06 03:43:59;;;;;;;5.67;5.07;;;;;;;;;;4934097;29;20202;-85
2022/05/06 03:55:29;;;;;;;3.90;3.53;;;;;;;;;;4975402;28;20202;-85
2022/05/06 03:58:06;;;;;;;3.20;2.97;;;;;;;;;;5013612;28;20195;-85
2022/05/06 04:00:57;;;;;;;3.40;3.13;;;;;;;;;;5013538;28;20219;-85
2022/05/06 04:03:55;;;;;;;3.07;2.87;;;;;;;;;;5011308;28;20306;-84
2022/05/06 04:07:14;;;;;;;4.20;3.77;;;;;;;;;;5006341;28;20203;-85
2022/05/06 04:25:10;;;;;;;45.93;27.93;;;;;;;;;;4863061;29;20208;-85
2022/05/06 04:31:17;;;;;;;16.93;11.57;;;;;;;;;;4831449;29;20213;-86
2022/05/06 04:33:45;;;;;;;14.07;11.00;;;;;;;;;;4858576;29;20311;-84
2022/05/06 04:36:12;;;;;;;32.90;21.30;;;;;;;;;;4858183;29;20206;-85
2022/05/06 04:38:39;;;;;;;35.70;27.53;;;;;;;;;;4860915;29;20204;-86
2022/05/06 04:41:06;;;;;;;26.23;20.60;;;;;;;;;;4876901;29;20237;-85
2022/05/06 04:43:34;;;;;;;26.13;16.87;;;;;;;;;;4876830;29;20235;-85
2022/05/06 04:46:01;;;;;;;8.57;7.70;;;;;;;;;;4876964;29;20245;-85
2022/05/06 04:48:31;;;;;;;8.03;7.20;;;;;;;;;;4877125;29;20295;-85
2022/05/06 04:50:58;;;;;;;8.73;6.60;;;;;;;;;;4876348;29;20297;-84
2022/05/06 04:53:25;;;;;;;7.13;6.43;;;;;;;;;;4892337;29;20287;-83
2022/05/06 04:55:52;;;;;;;5.70;5.07;;;;;;;;;;4933502;29;20294;-83
2022/05/06 04:58:20;;;;;;;4.97;4.20;;;;;;;;;;4987356;28;20195;-85
2022/05/06 05:00:47;;;;;;;4.30;3.90;;;;;;;;;;5012306;28;20219;-85
2022/05/06 05:03:15;;;;;;;4.27;2.83;;;;;;;;;;5013038;28;20257;-85
2022/05/06 05:05:44;;;;;;;8.63;3.63;;;;;;;;;;5012516;28;20277;-85
2022/05/06 05:08:11;;;;;;;3.83;3.53;;;;;;;;;;5012726;28;20230;-85
2022/05/06 05:10:39;;;;;;;3.73;3.40;;;;;;;;;;5009192;28;20210;-86
2022/05/06 05:13:06;;;;;;;3.97;3.20;;;;;;;;;;5012826;28;20249;-86
2022/05/06 05:15:33;;;;;;;5.57;2.90;;;;;;;;;;5012337;28;20199;-86
2022/05/06 05:18:04;;;;;;;4.83;3.33;;;;;;;;;;5012133;28;20690;-85
2022/05/06 05:20:32;;;;;;;4.37;3.33;;;;;;;;;;5012209;28;20227;-85
2022/05/06 05:23:07;;;;;;;3.10;2.80;;;;;;;;;;5012250;28;20650;-86
2022/05/06 05:25:34;;;;;;;6.57;3.90;;;;;;;;;;5022941;28;20213;-87
2022/05/06 05:28:01;;;;;;;4.13;3.67;;;;;;;;;;5032182;28;20201;-83
2022/05/06 05:30:29;;;;;;;7.03;3.77;;;;;;;;;;5032027;28;20205;-81
2022/05/06 05:32:57;;;;;;;6.50;3.93;;;;;;;;;;5032185;28;20285;-81
2022/05/06 05:35:24;;;;;;;4.63;3.47;;;;;;;;;;5031835;28;20202;-81
2022/05/06 05:37:51;;;;;;;3.60;3.30;;;;;;;;;;5032365;28;20207;-80
2022/05/06 05:40:20;;;;;;;3.50;3.20;;;;;;;;;;5031786;28;20227;-81
2022/05/06 05:42:47;;;;;;;3.00;2.73;;;;;;;;;;5032286;28;20198;-83
2022/05/06 05:48:20;;;;;;;3.17;2.87;;;;;;;;;;5031680;28;20234;-81
2022/05/06 05:50:48;;;;;;;4.50;2.93;;;;;;;;;;5031752;28;20183;-81
2022/05/06 05:53:15;;;;;;;2.97;2.77;;;;;;;;;;5031601;28;20683;-81
2022/05/06 05:55:44;;;;;;;4.93;3.00;;;;;;;;;;5031564;28;20288;-81
2022/05/06 05:58:11;;;;;;;3.73;3.43;;;;;;;;;;5031728;28;20197;-81
2022/05/06 06:00:38;;;;;;;3.80;3.40;;;;;;;;;;5030942;28;20219;-81
2022/05/06 06:03:05;;;;;;;4.67;2.63;;;;;;;;;;5029046;28;20232;-81
2022/05/06 06:05:32;;;;;;;2.80;2.60;;;;;;;;;;5031197;28;20288;-81
2022/05/06 06:08:00;;;;;;;3.83;2.93;;;;;;;;;;5031595;28;20198;-83
2022/05/06 06:10:28;;;;;;;3.27;2.77;;;;;;;;;;5031396;28;20241;-82
2022/05/06 06:12:57;;;;;;;7.60;6.37;;;;;;;;;;5031296;28;20618;-81
2022/05/06 06:15:25;;;;;;;3.97;3.53;;;;;;;;;;5031322;28;20199;-82
2022/05/06 06:17:52;;;;;;;4.63;3.30;;;;;;;;;;5031909;28;20286;-82
2022/05/06 06:20:21;;;;;;;3.80;2.73;;;;;;;;;;5031313;28;20222;-82
2022/05/06 06:22:48;;;;;;;9.03;6.50;;;;;;;;;;5031274;28;20313;-82
2022/05/06 06:25:16;;;;;;;3.77;3.47;;;;;;;;;;5030924;28;20297;-82
2022/05/06 06:27:44;;;;;;;3.63;2.70;;;;;;;;;;5031583;28;20194;-82
2022/05/06 06:30:13;;;;;;;3.27;2.97;;;;;;;;;;5031152;28;20199;-82
2022/05/06 06:32:40;;;;;;;3.50;3.07;;;;;;;;;;5031516;28;20198;-82
2022/05/06 06:35:08;;;;;;;3.10;2.80;;;;;;;;;;5031123;28;20281;-83
2022/05/06 06:37:38;;;;;;;2.77;2.40;;;;;;;;;;5028871;28;20234;-83
2022/05/06 06:40:06;;;;;;;3.60;3.30;;;;;;;;;;5031104;28;20199;-82
2022/05/06 06:42:33;;;;;;;4.50;2.90;;;;;;;;;;5030953;28;20198;-82
2022/05/06 06:45:00;;;;;;;3.90;3.30;;;;;;;;;;5030794;28;20297;-83
2022/05/06 06:47:30;;;;;;;3.90;2.73;;;;;;;;;;5031323;28;20237;-83
2022/05/06 06:49:59;;;;;;;5.97;3.07;;;;;;;;;;5031040;28;20253;-83
2022/05/06 06:52:26;;;;;;;3.37;3.00;;;;;;;;;;5030783;28;20198;-83
2022/05/06 06:54:53;;;;;;;2.60;2.40;;;;;;;;;;5030860;28;20667;-83
2022/05/06 06:57:20;;;;;;;3.53;2.83;;;;;;;;;;5031679;28;20226;-84
2022/05/06 06:59:47;;;;;;;2.97;2.50;;;;;;;;;;5034771;28;20202;-83
2022/05/06 07:02:15;;;;;;;12.57;3.30;;;;;;;;;;5034290;28;20226;-84
2022/05/06 07:04:43;;;;;;;2.87;2.67;;;;;;;;;;5034178;28;20295;-84
2022/05/06 07:12:45;;;;;;;4.17;3.17;;;;;;;;;;5034294;28;20371;-83
2022/05/06 07:15:13;;;;;;;9.20;3.10;;;;;;;;;;5034183;28;20274;-84
2022/05/06 07:17:40;;;;;;;4.30;3.00;;;;;;;;;;5034431;28;20286;-83
2022/05/06 07:20:10;;;;;;;5.23;2.80;;;;;;;;;;5034077;28;20685;-84
2022/05/06 07:22:38;;;;;;;5.77;3.37;;;;;;;;;;5034269;28;20261;-83
2022/05/06 07:25:06;;;;;;;2.93;2.73;;;;;;;;;;5033894;28;20342;-84
2022/05/06 07:27:36;;;;;;;4.40;3.37;;;;;;;;;;5034347;28;20291;-84
2022/05/06 07:30:04;;;;;;;3.57;3.27;;;;;;;;;;5033749;28;20205;-84
2022/05/06 07:32:38;;;;;;;2.77;2.50;;;;;;;;;;5034663;28;20282;-84
2022/05/06 07:35:07;;;;;;;2.90;2.57;;;;;;;;;;5033747;28;20630;-83
2022/05/06 07:37:36;;;;;;;2.33;2.17;;;;;;;;;;5034230;28;20195;-84
2022/05/06 07:40:09;;;;;;;3.20;2.90;;;;;;;;;;5033845;28;20209;-84
2022/05/06 07:42:36;;;;;;;3.20;2.90;;;;;;;;;;5034048;28;20619;-84
2022/05/06 07:45:04;;;;;;;3.10;2.87;;;;;;;;;;5033558;28;20290;-84
2022/05/06 07:47:32;;;;;;;4.40;3.33;;;;;;;;;;5034230;28;20203;-84
2022/05/06 07:49:59;;;;;;;4.97;3.17;;;;;;;;;;5033585;28;20234;-85
2022/05/06 07:52:37;;;;;;;3.27;2.63;;;;;;;;;;5033640;28;20289;-84
2022/05/06 07:55:05;;;;;;;4.50;3.43;;;;;;;;;;5033867;28;20199;-84
2022/05/06 07:57:32;;;;;;;7.80;3.47;;;;;;;;;;5033560;28;20203;-84
2022/05/06 07:59:59;;;;;;;5.80;3.00;;;;;;;;;;5033522;28;20212;-84
2022/05/06 08:05:11;;;;;;;4.70;3.00;;;;;;;;;;5031599;28;20201;-84
2022/05/06 08:07:39;;;;;;;5.47;3.30;;;;;;;;;;5033618;28;20195;-84
2022/05/06 08:10:08;;;;;;;4.90;2.67;;;;;;;;;;5032662;28;20734;-85
2022/05/06 08:12:38;;;;;;;5.23;3.63;;;;;;;;;;5033047;28;20197;-84
2022/05/06 08:15:09;;;;;;;5.83;3.40;;;;;;;;;;5033153;28;20285;-84
2022/05/06 08:17:39;;;;;;;7.27;2.90;;;;;;;;;;5033269;28;20213;-84
2022/05/06 08:20:08;;;;;;;3.30;2.97;;;;;;;;;;5033039;28;20202;-84
2022/05/06 08:22:36;;;;;;;6.00;2.93;;;;;;;;;;5032378;28;20240;-84
2022/05/06 08:25:05;;;;;;;6.17;3.23;;;;;;;;;;5032476;28;20265;-84
2022/05/06 08:27:37;;;;;;;6.87;2.87;;;;;;;;;;5033484;28;20668;-85
2022/05/06 08:30:06;;;;;;;2.47;2.27;;;;;;;;;;5032471;28;20237;-85
2022/05/06 08:32:34;;;;;;;4.77;2.87;;;;;;;;;;5031426;28;20194;-84
2022/05/06 08:35:10;;;;;;;4.23;3.20;;;;;;;;;;5030073;28;20202;-84
2022/05/06 08:37:44;;;;;;;3.83;3.00;;;;;;;;;;5029747;28;20202;-85
2022/05/06 08:40:19;;;;;;;3.53;2.93;;;;;;;;;;5032357;28;20198;-84
2022/05/06 08:42:49;;;;;;;3.80;3.37;;;;;;;;;;5030852;28;20210;-84
2022/05/06 08:50:53;;;;;;;4.07;3.07;;;;;;;;;;5032625;28;20194;-84
2022/05/06 08:53:21;;;;;;;3.40;2.80;;;;;;;;;;5033092;28;20542;-85
2022/05/06 08:55:51;;;;;;;7.53;2.90;;;;;;;;;;5032836;28;20202;-85
2022/05/06 08:58:18;;;;;;;7.50;3.07;;;;;;;;;;5032736;28;20198;-85
2022/05/06 09:00:46;;;;;;;5.17;2.60;;;;;;;;;;5032432;28;20197;-85
2022/05/06 09:03:25;;;;;;;9.87;3.53;;;;;;;;;;5032779;28;20299;-85
2022/05/06 09:05:59;;;;;;;3.23;2.70;;;;;;;;;;5032073;28;20285;-85
2022/05/06 09:08:36;;;;;;;6.43;3.20;;;;;;;;;;5032669;28;20630;-85
2022/05/06 09:11:07;;;;;;;11.00;4.10;;;;;;;;;;5032121;28;20183;-85
2022/05/06 09:13:36;;;;;;;5.10;3.23;;;;;;;;;;5032627;28;20205;-85
2022/05/06 09:16:42;;;;;;;6.30;2.70;;;;;;;;;;5032414;28;20209;-85
2022/05/06 09:19:10;;;;;;;5.93;2.57;;;;;;;;;;5032384;28;20209;-84
2022/05/06 09:21:38;;;;;;;2.37;2.13;;;;;;;;;;5032056;28;20233;-85
2022/05/06 09:24:18;;;;;;;2.87;2.67;;;;;;;;;;5032312;28;20575;-85
2022/05/06 09:27:03;;;;;;;3.70;2.97;;;;;;;;;;5032190;28;20256;-85
2022/05/06 09:29:33;;;;;;;2.90;2.60;;;;;;;;;;5030267;28;20198;-84
2022/05/06 09:32:30;;;;;;;3.03;2.40;;;;;;;;;;5031959;28;20558;-84
2022/05/06 09:34:58;;;;;;;4.97;1.97;;;;;;;;;;4987189;28;20207;-84
2022/05/06 09:37:36;;;;;;;4.73;2.23;;;;;;;;;;5032092;28;20550;-84
2022/05/06 09:40:11;;;;;;;2.70;2.33;;;;;;;;;;5031777;28;20218;-84
2022/05/06 09:42:41;;;;;;;3.10;2.40;;;;;;;;;;5031896;28;20728;-84
2022/05/06 09:45:11;;;;;;;4.03;2.30;;;;;;;;;;5031486;28;20206;-84
2022/05/06 09:47:40;;;;;;;2.40;2.20;;;;;;;;;;5032201;28;20637;-83
2022/05/06 09:50:09;;;;;;;5.60;2.47;;;;;;;;;;5031587;28;20675;-84
2022/05/06 09:52:37;;;;;;;4.47;2.73;;;;;;;;;;5031580;28;20199;-83
2022/05/06 09:55:10;;;;;;;3.60;2.10;;;;;;;;;;5026535;28;20715;-83
2022/05/06 09:57:38;;;;;;;3.93;2.80;;;;;;;;;;5013703;28;20210;-84
2022/05/06 10:00:08;;;;;;;3.47;2.23;;;;;;;;;;5031543;28;20209;-84
2022/05/06 10:02:37;;;;;;;7.53;3.27;;;;;;;;;;5013284;28;20237;-84
2022/05/06 10:05:04;;;;;;;6.03;2.90;;;;;;;;;;5011761;28;20268;-83
2022/05/06 10:07:43;;;;;;;3.43;2.53;;;;;;;;;;5011913;28;20207;-84
2022/05/06 10:10:25;;;;;;;4.30;2.90;;;;;;;;;;5011935;28;20553;-84
2022/05/06 10:12:54;;;;;;;4.53;2.83;;;;;;;;;;5012171;28;20187;-83
2022/05/06 10:15:30;;;;;;;6.33;3.43;;;;;;;;;;5011722;28;20585;-83
2022/05/06 10:17:59;;;;;;;3.23;2.93;;;;;;;;;;5012193;28;20183;-84
2022/05/06 10:21:00;;;;;;;3.77;2.87;;;;;;;;;;5011358;28;20195;-84
2022/05/06 10:23:47;;;;;;;4.97;3.10;;;;;;;;;;5011366;28;20250;-84
2022/05/06 10:26:40;;;;;;;3.50;2.57;;;;;;;;;;5011646;28;20222;-84
2022/05/06 10:35:11;;;;;;;3.87;3.57;;;;;;;;;;5015182;28;20191;-84
2022/05/06 10:37:39;;;;;;;3.20;2.87;;;;;;;;;;5015266;28;20188;-84
2022/05/06 10:40:38;;;;;;;2.90;2.70;;;;;;;;;;5015568;28;20605;-84
2022/05/06 10:43:08;;;;;;;2.77;2.53;;;;;;;;;;5015108;28;20223;-84
2022/05/06 10:45:36;;;;;;;6.00;2.80;;;;;;;;;;5015476;28;20277;-84
2022/05/06 10:48:19;;;;;;;3.27;2.97;;;;;;;;;;5015066;28;20210;-84
2022/05/06 10:50:46;;;;;;;3.50;3.20;;;;;;;;;;5033315;28;20261;-84
2022/05/06 10:53:33;;;;;;;4.50;3.97;;;;;;;;;;5034953;28;20194;-84
2022/05/06 10:56:00;;;;;;;4.47;2.73;;;;;;;;;;5034600;28;20226;-84
2022/05/06 10:58:30;;;;;;;4.70;2.67;;;;;;;;;;5034604;28;20204;-83
2022/05/06 11:01:00;;;;;;;3.30;2.93;;;;;;;;;;5034890;28;20202;-83
2022/05/06 11:03:29;;;;;;;4.60;3.20;;;;;;;;;;5034717;28;20221;-83
2022/05/06 11:05:56;;;;;;;5.20;3.03;;;;;;;;;;5034572;28;20290;-83
2022/05/06 11:08:33;;;;;;;4.40;2.57;;;;;;;;;;5034622;28;20230;-83
2022/05/06 11:11:01;;;;;;;4.60;2.70;;;;;;;;;;5034429;28;20248;-82
2022/05/06 11:13:28;;;;;;;3.63;3.33;;;;;;;;;;5034293;28;20233;-82
2022/05/06 11:16:09;;;;;;;6.53;4.77;;;;;;;;;;5034300;28;20200;-83
2022/05/06 11:18:44;;;;;;;5.20;3.20;;;;;;;;;;5034301;28;20198;-82
2022/05/06 11:21:22;;;;;;;8.53;3.90;;;;;;;;;;5034257;28;20222;-82
2022/05/06 11:23:49;;;;;;;8.53;2.70;;;;;;;;;;5034087;28;20238;-81
2022/05/06 11:26:24;;;;;;;6.97;3.70;;;;;;;;;;5034446;28;20199;-82
2022/05/06 11:29:02;;;;;;;4.67;2.40;;;;;;;;;;5034298;28;20184;-83
2022/05/06 11:31:29;;;;;;;5.37;3.50;;;;;;;;;;5034225;28;20232;-83
2022/05/06 11:34:03;;;;;;;7.77;5.57;;;;;;;;;;5033955;28;20221;-82
2022/05/06 11:36:30;;;;;;;7.43;4.07;;;;;;;;;;5034009;28;20193;-83
2022/05/06 11:38:57;;;;;;;12.27;7.30;;;;;;;;;;5034110;28;20198;-82
2022/05/06 11:41:25;;;;;;;4.37;2.97;;;;;;;;;;5034214;28;20281;-83
2022/05/06 11:44:05;;;;;;;7.10;4.07;;;;;;;;;;5032413;28;20234;-82
2022/05/06 11:49:25;;;;;;;4.23;2.83;;;;;;;;;;5033873;28;20275;-83
2022/05/06 11:51:54;;;;;;;11.53;6.53;;;;;;;;;;5033785;28;20237;-83
2022/05/06 11:54:21;;;;;;;20.77;10.70;;;;;;;;;;5033420;28;20203;-83
2022/05/06 11:56:50;;;;;;;17.50;9.40;;;;;;;;;;5033756;28;20217;-83
2022/05/06 11:59:17;;;;;;;30.03;17.40;;;;;;;;;;5033320;28;20252;-83
2022/05/06 12:01:45;;;;;;;4.57;2.93;;;;;;;;;;5034031;28;20209;-82
2022/05/06 12:04:12;;;;;;;7.63;5.40;;;;;;;;;;5033044;28;20631;-82
2022/05/06 12:06:44;;;;;;;4.83;3.10;;;;;;;;;;5033670;28;20194;-82
2022/05/06 12:09:12;;;;;;;5.30;2.93;;;;;;;;;;5033060;28;20591;-82
2022/05/06 12:11:39;;;;;;;10.03;6.03;;;;;;;;;;5033401;28;20297;-82
2022/05/06 12:14:07;;;;;;;18.80;9.47;;;;;;;;;;5032774;28;20195;-82
2022/05/06 12:16:37;;;;;;;14.30;8.00;;;;;;;;;;5033573;28;20249;-83
2022/05/06 12:19:07;;;;;;;2.77;2.50;;;;;;;;;;5033414;28;20198;-82
2022/05/06 12:21:36;;;;;;;6.97;4.47;;;;;;;;;;5033183;28;20281;-83
2022/05/06 12:24:05;;;;;;;6.70;3.90;;;;;;;;;;5032750;28;20276;-82
2022/05/06 12:26:37;;;;;;;5.10;4.17;;;;;;;;;;5032909;28;20252;-82
2022/05/06 12:29:19;;;;;;;8.33;5.20;;;;;;;;;;5033038;28;20209;-82
2022/05/06 12:31:48;;;;;;;37.57;16.80;;;;;;;;;;5033640;28;20186;-82
2022/05/06 12:34:15;;;;;;;22.37;10.90;;;;;;;;;;5032403;28;20297;-83
2022/05/06 12:36:42;;;;;;;6.53;3.93;;;;;;;;;;5033073;28;20198;-83
2022/05/06 12:39:24;;;;;;;28.30;13.83;;;;;;;;;;5032689;28;20212;-82
2022/05/06 12:41:51;;;;;;;18.37;10.03;;;;;;;;;;5030452;28;20194;-83
2022/05/06 12:44:22;;;;;;;4.07;2.60;;;;;;;;;;5032396;28;20201;-84
2022/05/06 12:46:50;;;;;;;2.60;2.33;;;;;;;;;;5032490;28;20209;-83
2022/05/06 12:52:06;;;;;;;3.77;2.70;;;;;;;;;;5032440;28;20597;-84
2022/05/06 12:54:35;;;;;;;3.70;2.37;;;;;;;;;;5032447;28;20203;-84
2022/05/06 12:57:02;;;;;;;2.83;2.17;;;;;;;;;;5030956;28;20667;-84
2022/05/06 12:59:30;;;;;;;2.57;2.37;;;;;;;;;;5032229;28;20383;-84
2022/05/06 13:01:57;;;;;;;6.23;2.70;;;;;;;;;;5031653;28;20616;-84
2022/05/06 13:04:24;;;;;;;9.43;3.73;;;;;;;;;;5031627;28;20286;-83
2022/05/06 13:06:52;;;;;;;7.40;3.93;;;;;;;;;;5031618;28;20204;-85
2022/05/06 13:09:19;;;;;;;5.33;4.00;;;;;;;;;;5032660;28;20595;-84
2022/05/06 13:11:48;;;;;;;4.60;2.10;;;;;;;;;;5032243;28;20325;-84
2022/05/06 13:14:15;;;;;;;3.27;2.50;;;;;;;;;;5032127;28;20195;-84
2022/05/06 13:16:42;;;;;;;4.50;3.40;;;;;;;;;;5032088;28;20211;-85
2022/05/06 13:19:11;;;;;;;2.53;2.33;;;;;;;;;;5032035;28;20202;-84
2022/05/06 13:21:39;;;;;;;4.40;3.20;;;;;;;;;;5032049;28;20248;-84
2022/05/06 13:24:07;;;;;;;9.93;2.53;;;;;;;;;;5032045;28;20222;-84
2022/05/06 13:26:35;;;;;;;4.17;2.10;;;;;;;;;;5032203;28;20195;-84
2022/05/06 13:29:04;;;;;;;3.63;2.50;;;;;;;;;;5032359;28;20198;-83
2022/05/06 13:31:32;;;;;;;3.13;2.93;;;;;;;;;;5031982;28;20203;-84
2022/05/06 13:33:59;;;;;;;5.47;2.80;;;;;;;;;;5031828;28;20293;-83
2022/05/06 13:36:26;;;;;;;4.07;2.67;;;;;;;;;;5032063;28;20576;-84
2022/05/06 13:38:53;;;;;;;4.03;2.93;;;;;;;;;;5032383;28;20643;-83
2022/05/06 13:41:21;;;;;;;3.13;2.83;;;;;;;;;;5032220;28;20194;-84
2022/05/06 13:43:48;;;;;;;10.47;4.57;;;;;;;;;;5031933;28;20245;-84
2022/05/06 13:46:17;;;;;;;2.60;2.37;;;;;;;;;;5031390;28;20661;-84
2022/05/06 13:48:44;;;;;;;6.63;3.03;;;;;;;;;;5032007;28;20199;-84
2022/05/06 13:51:12;;;;;;;8.57;4.70;;;;;;;;;;5032219;28;20194;-84
2022/05/06 13:53:39;;;;;;;3.80;2.93;;;;;;;;;;5031884;28;20195;-84
2022/05/06 13:59:06;;;;;;;4.23;2.27;;;;;;;;;;5032029;28;20309;-84
2022/05/06 14:01:35;;;;;;;2.50;2.30;;;;;;;;;;5031704;28;20249;-84
2022/05/06 14:04:03;;;;;;;3.47;2.40;;;;;;;;;;5031455;28;20228;-83
2022/05/06 14:06:31;;;;;;;4.40;3.07;;;;;;;;;;5031831;28;20736;-84
2022/05/06 14:08:58;;;;;;;2.47;2.10;;;;;;;;;;5035515;28;20201;-84
2022/05/06 14:11:26;;;;;;;16.40;2.80;;;;;;;;;;5035982;28;20198;-84
2022/05/06 14:13:55;;;;;;;2.73;2.23;;;;;;;;;;5035853;28;20232;-83
2022/05/06 14:16:22;;;;;;;3.63;2.40;;;;;;;;;;5035876;28;20205;-84
2022/05/06 14:18:51;;;;;;;4.43;2.60;;;;;;;;;;5035700;28;20203;-84
2022/05/06 14:21:18;;;;;;;2.77;2.50;;;;;;;;;;5035915;28;20207;-84
2022/05/06 14:23:45;;;;;;;3.90;3.10;;;;;;;;;;5035150;28;20232;-84
2022/05/06 14:26:13;;;;;;;4.50;3.97;;;;;;;;;;5035457;28;20194;-84
2022/05/06 14:28:40;;;;;;;2.83;2.17;;;;;;;;;;5035939;28;20206;-84
2022/05/06 14:31:07;;;;;;;2.90;2.33;;;;;;;;;;5035272;28;20202;-84
2022/05/06 14:33:34;;;;;;;2.83;2.10;;;;;;;;;;5035738;28;20628;-84
2022/05/06 14:36:04;;;;;;;4.83;2.70;;;;;;;;;;5035561;28;20205;-84
2022/05/06 14:38:31;;;;;;;4.67;2.80;;;;;;;;;;5035473;28;20206;-84
2022/05/06 14:40:58;;;;;;;3.17;2.33;;;;;;;;;;5034990;28;20226;-84
2022/05/06 14:43:26;;;;;;;2.97;2.50;;;;;;;;;;5033787;28;20245;-83
2022/05/06 14:45:53;;;;;;;5.20;2.43;;;;;;;;;;5034998;28;20211;-83
2022/05/06 14:48:20;;;;;;;2.47;2.27;;;;;;;;;;5034943;28;20245;-81
2022/05/06 14:50:47;;;;;;;3.07;2.77;;;;;;;;;;5034624;28;20205;-82
2022/05/06 14:53:16;;;;;;;4.60;2.17;;;;;;;;;;5035090;28;20222;-82
2022/05/06 14:55:43;;;;;;;2.80;2.50;;;;;;;;;;5034530;28;20202;-83
2022/05/06 14:58:10;;;;;;;5.13;3.00;;;;;;;;;;5034787;28;20210;-83
2022/05/06 15:00:38;;;;;;;4.30;2.87;;;;;;;;;;5034502;28;20210;-83
2022/05/06 15:03:05;;;;;;;4.87;2.90;;;;;;;;;;5034959;28;20222;-83
2022/05/06 15:05:33;;;;;;;2.63;2.27;;;;;;;;;;5034819;28;20203;-83
2022/05/06 15:08:00;;;;;;;3.17;2.47;;;;;;;;;;5033309;28;20207;-82
2022/05/06 15:10:29;;;;;;;6.93;2.70;;;;;;;;;;5033455;28;20195;-83
2022/05/06 15:12:56;;;;;;;3.23;3.03;;;;;;;;;;5034634;28;20675;-83
2022/05/06 15:15:23;;;;;;;3.97;2.40;;;;;;;;;;5034270;28;20199;-84
2022/05/06 15:17:52;;;;;;;5.43;3.00;;;;;;;;;;5034399;28;20252;-83
2022/05/06 15:20:21;;;;;;;3.30;3.00;;;;;;;;;;5034317;28;20203;-83
2022/05/06 15:22:48;;;;;;;5.20;2.20;;;;;;;;;;5032692;28;20237;-82
2022/05/06 15:25:16;;;;;;;3.10;2.23;;;;;;;;;;5033459;28;20191;-83
2022/05/06 15:27:45;;;;;;;3.93;2.07;;;;;;;;;;5033464;28;20203;-83
2022/05/06 15:30:12;;;;;;;5.20;2.10;;;;;;;;;;5033321;28;20720;-83
2022/05/06 15:32:39;;;;;;;4.03;2.57;;;;;;;;;;5033141;28;20195;-83
2022/05/06 15:35:08;;;;;;;5.50;2.03;;;;;;;;;;5033035;28;20866;-83
2022/05/06 15:37:35;;;;;;;4.93;2.33;;;;;;;;;;5032993;28;20207;-82
2022/05/06 15:40:02;;;;;;;5.70;3.00;;;;;;;;;;5032988;28;20199;-83
2022/05/06 15:42:32;;;;;;;3.10;2.17;;;;;;;;;;5033366;28;20253;-82
2022/05/06 15:45:00;;;;;;;7.40;3.03;;;;;;;;;;5031628;28;20711;-83
2022/05/06 15:47:28;;;;;;;3.27;2.20;;;;;;;;;;5032773;28;20234;-83
2022/05/06 15:49:55;;;;;;;5.50;2.40;;;;;;;;;;5032607;28;20679;-83
2022/05/06 15:52:22;;;;;;;3.90;3.60;;;;;;;;;;5032894;28;20202;-83
2022/05/06 15:54:49;;;;;;;3.53;2.67;;;;;;;;;;5023719;28;20214;-83
2022/05/06 15:57:16;;;;;;;3.40;2.73;;;;;;;;;;5013007;28;20200;-82
2022/05/06 15:59:44;;;;;;;2.40;2.10;;;;;;;;;;5013154;28;20587;-82
2022/05/06 16:02:12;;;;;;;3.40;2.60;;;;;;;;;;5012063;28;20688;-83
2022/05/06 16:04:40;;;;;;;2.50;2.17;;;;;;;;;;5033078;28;20303;-83
2022/05/06 16:07:08;;;;;;;3.33;2.30;;;;;;;;;;5033530;28;20204;-83
2022/05/06 16:09:35;;;;;;;6.83;3.63;;;;;;;;;;5033460;28;20194;-83
2022/05/06 16:12:02;;;;;;;4.27;2.80;;;;;;;;;;5033333;28;20669;-83
2022/05/06 16:17:16;;;;;;;2.83;2.30;;;;;;;;;;5033345;28;20198;-83
2022/05/06 16:19:44;;;;;;;3.17;2.30;;;;;;;;;;5033548;28;20199;-82
2022/05/06 16:22:11;;;;;;;2.60;2.40;;;;;;;;;;5033105;28;20232;-83
2022/05/06 16:24:38;;;;;;;5.10;2.40;;;;;;;;;;5032734;28;20319;-83
2022/05/06 16:27:06;;;;;;;4.80;2.87;;;;;;;;;;5033355;28;20202;-83
2022/05/06 16:29:33;;;;;;;3.67;2.10;;;;;;;;;;5033031;28;20238;-85
2022/05/06 16:32:00;;;;;;;7.13;2.50;;;;;;;;;;5032818;28;20207;-85
2022/05/06 16:37:25;;;;;;;4.03;2.53;;;;;;;;;;5013305;28;20204;-84
2022/05/06 16:39:53;;;;;;;2.23;1.87;;;;;;;;;;5013036;28;20188;-84
2022/05/06 16:42:20;;;;;;;3.13;2.40;;;;;;;;;;5013105;28;20201;-83
2022/05/06 16:44:47;;;;;;;2.93;1.90;;;;;;;;;;5012826;28;20231;-84
2022/05/06 16:47:14;;;;;;;6.87;2.67;;;;;;;;;;5013102;28;20681;-84
2022/05/06 16:49:43;;;;;;;2.40;2.20;;;;;;;;;;5012864;28;20294;-84
2022/05/06 16:52:11;;;;;;;5.60;2.30;;;;;;;;;;5012933;28;20271;-84
2022/05/06 16:54:38;;;;;;;8.97;2.57;;;;;;;;;;5026033;28;20234;-85
2022/05/06 16:57:05;;;;;;;3.00;1.90;;;;;;;;;;5032648;28;20234;-85
2022/05/06 16:59:34;;;;;;;4.03;2.50;;;;;;;;;;5032779;28;20202;-85
2022/05/06 17:02:01;;;;;;;2.33;2.13;;;;;;;;;;5032810;28;20206;-84
2022/05/06 17:04:28;;;;;;;3.13;2.30;;;;;;;;;;5032024;28;20230;-84
2022/05/06 17:06:57;;;;;;;3.70;2.63;;;;;;;;;;5032534;28;20199;-85
2022/05/06 17:09:24;;;;;;;3.23;2.30;;;;;;;;;;5032258;28;20198;-83
2022/05/06 17:11:51;;;;;;;3.53;2.37;;;;;;;;;;5032676;28;20552;-84
2022/05/06 17:14:18;;;;;;;6.90;5.53;;;;;;;;;;5031149;28;20595;-84
2022/05/06 17:16:49;;;;;;;3.53;2.90;;;;;;;;;;5027406;28;20694;-96
2022/05/06 17:19:16;;;;;;;7.67;6.63;;;;;;;;;;5032290;28;20591;-83
2022/05/06 17:21:43;;;;;;;4.23;3.83;;;;;;;;;;5032390;28;20198;-84
2022/05/06 17:24:12;;;;;;;5.07;3.57;;;;;;;;;;5031904;28;20655;-82
2022/05/06 17:26:39;;;;;;;5.33;3.77;;;;;;;;;;5032194;28;20198;-84
2022/05/06 17:29:06;;;;;;;7.73;5.63;;;;;;;;;;5030042;28;20198;-83
2022/05/06 17:31:35;;;;;;;6.50;3.53;;;;;;;;;;5027512;28;20207;-83
2022/05/06 17:34:02;;;;;;;4.20;3.27;;;;;;;;;;5032475;28;20194;-85